sensor_id;sensor_type;location;lat;lon;timestamp;P1;durP1;ratioP1;P2;durP2;ratioP2
49820;SDS011;36893;52.520;13.450;2023-11-18T00:07:08;2.93;;;0.83;;
49820;SDS011;36893;52.520;13.450;2023-11-18T00:17:09;1.63;;;0.80;;
49820;SDS011;36893;52.520;13.450;2023-11-18T00:27:10;2.07;;;0.97;;
49820;SDS011;36893;52.520;13.450;2023-11-18T00:37:10;2.23;;;0.60;;
49820;SDS011;36893;52.520;13.450;2023-11-18T00:47:11;3.97;;;0.97;;
49820;SDS011;36893;52.520;13.450;2023-11-18T00:57:11;1.00;;;0.60;;
49820;SDS011;36893;52.520;13.450;2023-11-18T01:07:12;5.40;;;0.90;;
49820;SDS011;36893;52.520;13.450;2023-11-18T01:17:13;1.67;;;0.67;;
49820;SDS011;36893;52.520;13.450;2023-11-18T01:27:13;3.63;;;0.53;;
49820;SDS011;36893;52.520;13.450;2023-11-18T01:37:14;1.77;;;0.60;;
49820;SDS011;36893;52.520;13.450;2023-11-18T01:47:15;3.73;;;0.77;;
49820;SDS011;36893;52.520;13.450;2023-11-18T01:57:16;2.53;;;0.93;;
49820;SDS011;36893;52.520;13.450;2023-11-18T02:07:17;3.50;;;0.80;;
49820;SDS011;36893;52.520;13.450;2023-11-18T02:17:18;3.85;;;0.80;;
49820;SDS011;36893;52.520;13.450;2023-11-18T02:27:24;2.10;;;0.45;;
49820;SDS011;36893;52.520;13.450;2023-11-18T02:37:26;1.10;;;0.57;;
49820;SDS011;36893;52.520;13.450;2023-11-18T02:47:27;0.60;;;0.38;;
49820;SDS011;36893;52.520;13.450;2023-11-18T02:57:28;2.63;;;1.45;;
49820;SDS011;36893;52.520;13.450;2023-11-18T03:07:29;2.20;;;0.70;;
49820;SDS011;36893;52.520;13.450;2023-11-18T03:17:30;3.97;;;0.50;;
49820;SDS011;36893;52.520;13.450;2023-11-18T03:27:30;1.97;;;0.70;;
49820;SDS011;36893;52.520;13.450;2023-11-18T03:37:31;0.63;;;0.30;;
49820;SDS011;36893;52.520;13.450;2023-11-18T03:47:32;1.07;;;0.47;;
49820;SDS011;36893;52.520;13.450;2023-11-18T03:57:33;0.57;;;0.38;;
49820;SDS011;36893;52.520;13.450;2023-11-18T04:07:34;0.40;;;0.40;;
49820;SDS011;36893;52.520;13.450;2023-11-18T04:17:35;1.00;;;0.57;;
49820;SDS011;36893;52.520;13.450;2023-11-18T04:27:36;1.73;;;0.50;;
49820;SDS011;36893;52.520;13.450;2023-11-18T04:37:40;0.90;;;0.32;;
49820;SDS011;36893;52.520;13.450;2023-11-18T04:47:42;1.27;;;0.30;;
49820;SDS011;36893;52.520;13.450;2023-11-18T04:57:43;0.35;;;0.30;;
49820;SDS011;36893;52.520;13.450;2023-11-18T05:07:44;0.30;;;0.30;;
49820;SDS011;36893;52.520;13.450;2023-11-18T05:17:45;0.40;;;0.30;;
49820;SDS011;36893;52.520;13.450;2023-11-18T05:27:45;0.83;;;0.40;;
49820;SDS011;36893;52.520;13.450;2023-11-18T05:37:46;0.30;;;0.30;;
49820;SDS011;36893;52.520;13.450;2023-11-18T05:47:47;1.20;;;0.40;;
49820;SDS011;36893;52.520;13.450;2023-11-18T05:57:48;0.50;;;0.30;;
49820;SDS011;36893;52.520;13.450;2023-11-18T06:07:49;0.40;;;0.40;;
49820;SDS011;36893;52.520;13.450;2023-11-18T06:17:50;1.30;;;0.55;;
49820;SDS011;36893;52.520;13.450;2023-11-18T06:27:51;0.47;;;0.47;;
49820;SDS011;36893;52.520;13.450;2023-11-18T06:37:54;1.87;;;0.47;;
49820;SDS011;36893;52.520;13.450;2023-11-18T06:47:55;1.83;;;0.83;;
49820;SDS011;36893;52.520;13.450;2023-11-18T06:57:55;1.73;;;0.43;;
49820;SDS011;36893;52.520;13.450;2023-11-18T07:07:56;0.67;;;0.40;;
49820;SDS011;36893;52.520;13.450;2023-11-18T07:17:57;3.53;;;0.60;;
49820;SDS011;36893;52.520;13.450;2023-11-18T07:27:57;0.57;;;0.30;;
49820;SDS011;36893;52.520;13.450;2023-11-18T07:37:59;2.92;;;0.60;;
49820;SDS011;36893;52.520;13.450;2023-11-18T07:48:01;0.85;;;0.47;;
49820;SDS011;36893;52.520;13.450;2023-11-18T07:58:09;2.22;;;0.65;;
49820;SDS011;36893;52.520;13.450;2023-11-18T08:08:11;1.00;;;0.45;;
49820;SDS011;36893;52.520;13.450;2023-11-18T08:18:12;6.22;;;0.82;;
49820;SDS011;36893;52.520;13.450;2023-11-18T08:28:13;0.57;;;0.52;;
49820;SDS011;36893;52.520;13.450;2023-11-18T08:38:13;2.93;;;1.00;;
49820;SDS011;36893;52.520;13.450;2023-11-18T08:48:14;2.07;;;0.90;;
49820;SDS011;36893;52.520;13.450;2023-11-18T08:58:16;3.70;;;1.45;;
49820;SDS011;36893;52.520;13.450;2023-11-18T09:08:28;3.70;;;1.73;;
49820;SDS011;36893;52.520;13.450;2023-11-18T09:18:39;5.22;;;2.00;;
49820;SDS011;36893;52.520;13.450;2023-11-18T09:28:43;6.30;;;1.77;;
49820;SDS011;36893;52.520;13.450;2023-11-18T09:38:47;5.53;;;1.90;;
49820;SDS011;36893;52.520;13.450;2023-11-18T09:48:47;4.63;;;2.00;;
49820;SDS011;36893;52.520;13.450;2023-11-18T09:58:54;3.10;;;1.40;;
49820;SDS011;36893;52.520;13.450;2023-11-18T10:09:09;4.97;;;1.63;;
49820;SDS011;36893;52.520;13.450;2023-11-18T10:19:16;4.97;;;2.00;;
49820;SDS011;36893;52.520;13.450;2023-11-18T10:29:17;7.07;;;2.78;;
49820;SDS011;36893;52.520;13.450;2023-11-18T10:39:18;8.52;;;2.78;;
49820;SDS011;36893;52.520;13.450;2023-11-18T10:49:22;9.07;;;3.40;;
49820;SDS011;36893;52.520;13.450;2023-11-18T10:59:22;6.47;;;2.45;;
49820;SDS011;36893;52.520;13.450;2023-11-18T11:09:24;14.07;;;4.17;;
49820;SDS011;36893;52.520;13.450;2023-11-18T11:19:50;10.40;;;3.97;;
49820;SDS011;36893;52.520;13.450;2023-11-18T11:30:02;14.82;;;4.53;;
49820;SDS011;36893;52.520;13.450;2023-11-18T11:40:11;7.73;;;4.03;;
49820;SDS011;36893;52.520;13.450;2023-11-18T11:50:27;11.75;;;4.53;;
49820;SDS011;36893;52.520;13.450;2023-11-18T12:00:32;14.65;;;5.32;;
49820;SDS011;36893;52.520;13.450;2023-11-18T12:10:35;15.90;;;5.10;;
49820;SDS011;36893;52.520;13.450;2023-11-18T12:20:42;16.73;;;5.63;;
49820;SDS011;36893;52.520;13.450;2023-11-18T12:30:54;12.27;;;4.47;;
49820;SDS011;36893;52.520;13.450;2023-11-18T12:51:05;17.35;;;6.60;;
49820;SDS011;36893;52.520;13.450;2023-11-18T13:01:10;13.25;;;6.15;;
49820;SDS011;36893;52.520;13.450;2023-11-18T13:21:16;16.55;;;6.45;;
49820;SDS011;36893;52.520;13.450;2023-11-18T13:31:18;15.77;;;5.85;;
49820;SDS011;36893;52.520;13.450;2023-11-18T13:41:28;11.38;;;4.75;;
49820;SDS011;36893;52.520;13.450;2023-11-18T13:51:31;12.82;;;5.40;;
49820;SDS011;36893;52.520;13.450;2023-11-18T14:01:33;14.70;;;5.18;;
49820;SDS011;36893;52.520;13.450;2023-11-18T14:11:33;10.67;;;5.07;;
49820;SDS011;36893;52.520;13.450;2023-11-18T14:21:34;13.00;;;5.10;;
49820;SDS011;36893;52.520;13.450;2023-11-18T14:31:35;15.98;;;5.40;;
49820;SDS011;36893;52.520;13.450;2023-11-18T14:41:36;15.63;;;5.73;;
49820;SDS011;36893;52.520;13.450;2023-11-18T14:51:37;11.07;;;5.30;;
49820;SDS011;36893;52.520;13.450;2023-11-18T15:01:38;13.27;;;4.82;;
49820;SDS011;36893;52.520;13.450;2023-11-18T15:11:43;14.30;;;5.35;;
49820;SDS011;36893;52.520;13.450;2023-11-18T15:21:45;14.80;;;5.28;;
49820;SDS011;36893;52.520;13.450;2023-11-18T15:31:46;10.37;;;4.30;;
49820;SDS011;36893;52.520;13.450;2023-11-18T15:41:46;12.87;;;5.07;;
49820;SDS011;36893;52.520;13.450;2023-11-18T15:51:47;14.30;;;5.22;;
49820;SDS011;36893;52.520;13.450;2023-11-18T16:01:48;10.90;;;4.30;;
49820;SDS011;36893;52.520;13.450;2023-11-18T16:11:48;13.87;;;4.83;;
49820;SDS011;36893;52.520;13.450;2023-11-18T16:21:49;14.70;;;5.10;;
49820;SDS011;36893;52.520;13.450;2023-11-18T16:31:52;11.13;;;4.25;;
49820;SDS011;36893;52.520;13.450;2023-11-18T16:41:53;17.27;;;5.17;;
49820;SDS011;36893;52.520;13.450;2023-11-18T16:51:55;12.48;;;4.80;;
49820;SDS011;36893;52.520;13.450;2023-11-18T17:01:55;10.57;;;4.30;;
49820;SDS011;36893;52.520;13.450;2023-11-18T17:11:56;12.23;;;4.87;;
49820;SDS011;36893;52.520;13.450;2023-11-18T17:21:56;9.83;;;3.70;;
49820;SDS011;36893;52.520;13.450;2023-11-18T17:31:57;13.30;;;4.77;;
49820;SDS011;36893;52.520;13.450;2023-11-18T17:41:58;10.82;;;3.90;;
49820;SDS011;36893;52.520;13.450;2023-11-18T17:51:59;11.50;;;4.27;;
49820;SDS011;36893;52.520;13.450;2023-11-18T18:01:59;11.43;;;4.13;;
49820;SDS011;36893;52.520;13.450;2023-11-18T18:12:00;10.43;;;4.00;;
49820;SDS011;36893;52.520;13.450;2023-11-18T18:22:01;8.57;;;3.08;;
49820;SDS011;36893;52.520;13.450;2023-11-18T18:32:03;7.35;;;3.38;;
49820;SDS011;36893;52.520;13.450;2023-11-18T18:42:05;10.60;;;3.75;;
49820;SDS011;36893;52.520;13.450;2023-11-18T18:52:06;8.17;;;3.30;;
49820;SDS011;36893;52.520;13.450;2023-11-18T19:02:06;9.82;;;3.45;;
49820;SDS011;36893;52.520;13.450;2023-11-18T19:12:07;8.30;;;3.00;;
49820;SDS011;36893;52.520;13.450;2023-11-18T19:22:08;11.03;;;3.30;;
49820;SDS011;36893;52.520;13.450;2023-11-18T19:32:12;5.05;;;2.42;;
49820;SDS011;36893;52.520;13.450;2023-11-18T19:42:13;8.53;;;3.03;;
49820;SDS011;36893;52.520;13.450;2023-11-18T19:52:13;7.70;;;3.50;;
49820;SDS011;36893;52.520;13.450;2023-11-18T20:02:15;5.20;;;2.40;;
49820;SDS011;36893;52.520;13.450;2023-11-18T20:22:19;5.67;;;2.70;;
49820;SDS011;36893;52.520;13.450;2023-11-18T20:32:20;7.28;;;2.50;;
49820;SDS011;36893;52.520;13.450;2023-11-18T20:42:21;4.77;;;2.40;;
49820;SDS011;36893;52.520;13.450;2023-11-18T20:52:22;6.00;;;2.57;;
49820;SDS011;36893;52.520;13.450;2023-11-18T21:02:25;6.47;;;2.53;;
49820;SDS011;36893;52.520;13.450;2023-11-18T21:12:25;6.17;;;2.77;;
49820;SDS011;36893;52.520;13.450;2023-11-18T21:22:26;3.73;;;1.80;;
49820;SDS011;36893;52.520;13.450;2023-11-18T21:32:27;4.30;;;1.90;;
49820;SDS011;36893;52.520;13.450;2023-11-18T21:42:28;5.75;;;2.10;;
49820;SDS011;36893;52.520;13.450;2023-11-18T21:52:31;7.00;;;2.40;;
49820;SDS011;36893;52.520;13.450;2023-11-18T22:02:38;6.65;;;2.42;;
49820;SDS011;36893;52.520;13.450;2023-11-18T22:12:40;7.10;;;2.50;;
49820;SDS011;36893;52.520;13.450;2023-11-18T22:22:41;12.10;;;2.27;;
49820;SDS011;36893;52.520;13.450;2023-11-18T22:32:42;5.50;;;2.10;;
49820;SDS011;36893;52.520;13.450;2023-11-18T22:42:43;4.20;;;1.97;;
49820;SDS011;36893;52.520;13.450;2023-11-18T22:52:46;4.30;;;2.13;;
49820;SDS011;36893;52.520;13.450;2023-11-18T23:02:50;4.30;;;1.90;;
49820;SDS011;36893;52.520;13.450;2023-11-18T23:12:51;6.17;;;2.23;;
49820;SDS011;36893;52.520;13.450;2023-11-18T23:22:52;4.85;;;1.92;;
49820;SDS011;36893;52.520;13.450;2023-11-18T23:32:53;5.00;;;1.77;;
49820;SDS011;36893;52.520;13.450;2023-11-18T23:42:54;4.73;;;1.80;;
49820;SDS011;36893;52.520;13.450;2023-11-18T23:52:54;4.68;;;1.70;;
